Time;durP1;ratioP1;P1;durP2;ratioP2;P2;SDS_P1;SDS_P2;PMS_P1;PMS_P2;Temp;Humidity;BMP_temperature;BMP_pressure;BME280_temperature;BME280_humidity;BME280_pressure;Samples;Min_cycle;Max_cycle;Signal;HPM_P1;HPM_P2
2023/06/26 00:00:07;;;;;;;23.80;15.38;;;;;;;;;;4992959;28;20034;-77
2023/06/26 00:02:34;;;;;;;26.42;17.08;;;;;;;;;;4992698;28;20100;-79
2023/06/26 00:05:02;;;;;;;26.95;16.73;;;;;;;;;;4992892;28;20034;-77
2023/06/26 00:07:34;;;;;;;31.48;17.40;;;;;;;;;;4992950;28;20042;-78
2023/06/26 00:10:00;;;;;;;24.92;18.65;;;;;;;;;;4992023;28;20525;-78
2023/06/26 00:12:27;;;;;;;33.80;18.15;;;;;;;;;;4993114;28;20065;-79
2023/06/26 00:14:53;;;;;;;27.90;17.30;;;;;;;;;;4977491;28;20037;-79
2023/06/26 00:17:19;;;;;;;27.08;17.02;;;;;;;;;;5000092;28;20050;-78
2023/06/26 00:19:45;;;;;;;30.48;16.88;;;;;;;;;;5003875;28;20038;-78
2023/06/26 00:22:11;;;;;;;26.77;18.10;;;;;;;;;;5007117;28;20081;-78
2023/06/26 00:24:37;;;;;;;29.83;16.65;;;;;;;;;;4988956;28;20061;-80
2023/06/26 00:27:02;;;;;;;21.15;16.65;;;;;;;;;;5006320;28;20046;-79
2023/06/26 00:29:28;;;;;;;29.05;16.65;;;;;;;;;;5005414;28;20039;-79
2023/06/26 00:31:56;;;;;;;23.42;16.35;;;;;;;;;;5003519;28;20053;-79
2023/06/26 00:34:22;;;;;;;29.60;16.30;;;;;;;;;;5000338;28;20030;-79
2023/06/26 00:36:48;;;;;;;26.48;15.90;;;;;;;;;;5005657;28;20042;-79
2023/06/26 00:39:15;;;;;;;27.48;15.75;;;;;;;;;;5004898;28;20042;-78
2023/06/26 00:41:41;;;;;;;30.20;16.77;;;;;;;;;;5005158;28;20066;-78
2023/06/26 00:44:07;;;;;;;28.65;16.30;;;;;;;;;;5000579;28;20038;-79
2023/06/26 00:46:33;;;;;;;31.65;17.75;;;;;;;;;;4993234;28;20413;-79
2023/06/26 00:48:59;;;;;;;25.40;15.70;;;;;;;;;;4993148;28;20133;-79
2023/06/26 00:51:28;;;;;;;28.02;15.90;;;;;;;;;;4991670;28;20045;-79
2023/06/26 00:53:54;;;;;;;24.67;17.40;;;;;;;;;;4991900;28;20114;-78
2023/06/26 00:56:20;;;;;;;32.90;16.40;;;;;;;;;;4991880;28;20078;-80
2023/06/26 00:58:46;;;;;;;23.27;16.70;;;;;;;;;;4995840;28;20072;-78
2023/06/26 01:01:17;;;;;;;25.55;17.15;;;;;;;;;;5000440;28;20066;-78
2023/06/26 01:03:43;;;;;;;;;;;;;;;;;;5000567;28;20042;-79
2023/06/26 01:06:11;;;;;;;28.42;17.45;;;;;;;;;;4995770;28;20017;-78
2023/06/26 01:08:37;;;;;;;31.20;18.70;;;;;;;;;;4991092;28;20105;-78
2023/06/26 01:11:03;;;;;;;29.48;18.98;;;;;;;;;;4990893;28;20038;-79
2023/06/26 01:13:30;;;;;;;41.00;18.88;;;;;;;;;;4990669;28;20044;-79
2023/06/26 01:15:57;;;;;;;25.95;18.08;;;;;;;;;;4991818;28;20514;-78
2023/06/26 01:18:23;;;;;;;30.88;16.95;;;;;;;;;;4990541;28;20056;-78
2023/06/26 01:20:50;;;;;;;32.38;16.60;;;;;;;;;;4990212;28;20042;-78
2023/06/26 01:23:22;;;;;;;29.88;18.33;;;;;;;;;;4973918;28;20042;-78
2023/06/26 01:25:55;;;;;;;27.35;17.75;;;;;;;;;;4990492;28;20031;-78
2023/06/26 01:28:21;;;;;;;36.70;20.48;;;;;;;;;;4990503;28;20030;-78
2023/06/26 01:30:47;;;;;;;27.63;16.15;;;;;;;;;;4991117;28;20409;-77
2023/06/26 01:33:13;;;;;;;21.30;16.52;;;;;;;;;;4990165;28;20038;-78
2023/06/26 01:35:39;;;;;;;36.47;16.05;;;;;;;;;;4958490;28;20109;-78
2023/06/26 01:38:12;;;;;;;26.20;16.02;;;;;;;;;;4991724;28;20038;-82
2023/06/26 01:40:38;;;;;;;31.67;16.17;;;;;;;;;;4991844;28;20037;-79
2023/06/26 01:43:05;;;;;;;30.10;16.95;;;;;;;;;;4991692;28;20046;-78
2023/06/26 01:45:33;;;;;;;22.75;16.75;;;;;;;;;;4990096;28;20031;-79
2023/06/26 01:47:59;;;;;;;25.70;18.05;;;;;;;;;;4990221;28;20092;-79
2023/06/26 01:50:26;;;;;;;33.28;19.65;;;;;;;;;;4992736;28;20038;-79
2023/06/26 01:53:00;;;;;;;29.98;17.25;;;;;;;;;;5001575;28;20069;-75
2023/06/26 01:55:36;;;;;;;33.65;16.60;;;;;;;;;;4984578;28;20030;-78
2023/06/26 01:58:02;;;;;;;32.22;16.73;;;;;;;;;;5000070;28;20038;-79
2023/06/26 02:00:29;;;;;;;29.27;17.02;;;;;;;;;;5001809;28;20042;-77
2023/06/26 02:02:55;;;;;;;31.83;17.20;;;;;;;;;;5002357;28;20058;-75
2023/06/26 02:05:23;;;;;;;29.35;17.20;;;;;;;;;;4999214;28;20432;-78
2023/06/26 02:07:51;;;;;;;39.78;18.02;;;;;;;;;;5000663;28;20421;-78
2023/06/26 02:10:17;;;;;;;34.80;18.08;;;;;;;;;;4999951;28;20034;-79
2023/06/26 02:12:45;;;;;;;33.45;17.55;;;;;;;;;;5002432;28;20112;-78
2023/06/26 02:15:14;;;;;;;36.35;16.65;;;;;;;;;;5003034;28;20065;-79
2023/06/26 02:17:40;;;;;;;29.55;18.33;;;;;;;;;;4978091;28;20042;-77
2023/06/26 02:20:08;;;;;;;38.47;18.92;;;;;;;;;;4974432;28;20520;-76
2023/06/26 02:22:36;;;;;;;36.78;18.80;;;;;;;;;;4991328;28;20046;-79
2023/06/26 02:25:03;;;;;;;37.80;19.23;;;;;;;;;;4991137;28;20041;-78
2023/06/26 02:27:31;;;;;;;26.77;18.95;;;;;;;;;;4990533;28;20497;-77
2023/06/26 02:29:57;;;;;;;26.80;18.55;;;;;;;;;;4993358;28;20122;-78
2023/06/26 02:32:24;;;;;;;37.20;18.73;;;;;;;;;;4993093;28;20053;-77
2023/06/26 02:34:53;;;;;;;35.78;18.58;;;;;;;;;;4993145;28;20053;-76
2023/06/26 02:37:19;;;;;;;31.85;17.65;;;;;;;;;;4997243;28;20038;-76
2023/06/26 02:39:47;;;;;;;29.60;18.30;;;;;;;;;;4990141;28;20497;-76
2023/06/26 02:42:13;;;;;;;40.55;20.98;;;;;;;;;;4994010;28;20464;-76
2023/06/26 02:44:39;;;;;;;29.13;20.55;;;;;;;;;;4994459;28;20065;-76
2023/06/26 02:47:05;;;;;;;37.83;20.92;;;;;;;;;;4994651;28;20512;-77
2023/06/26 02:49:32;;;;;;;35.88;20.73;;;;;;;;;;4992483;28;20058;-77
2023/06/26 02:51:58;;;;;;;35.92;23.15;;;;;;;;;;4992622;28;20038;-76
2023/06/26 02:54:27;;;;;;;33.28;22.65;;;;;;;;;;4976229;28;20034;-75
2023/06/26 02:56:57;;;;;;;43.72;22.30;;;;;;;;;;5002674;28;20433;-74
2023/06/26 02:59:27;;;;;;;34.67;22.13;;;;;;;;;;4977974;28;20397;-77
2023/06/26 03:01:54;;;;;;;34.80;22.02;;;;;;;;;;4992433;28;20476;-76
2023/06/26 03:04:26;;;;;;;33.83;22.25;;;;;;;;;;4992308;28;20077;-76
2023/06/26 03:06:52;;;;;;;42.95;22.80;;;;;;;;;;4993649;28;20137;-77
2023/06/26 03:09:18;;;;;;;32.45;21.60;;;;;;;;;;4993092;28;20473;-76
2023/06/26 03:11:44;;;;;;;27.63;19.05;;;;;;;;;;4992355;28;20133;-76
2023/06/26 03:14:11;;;;;;;32.83;20.13;;;;;;;;;;4976292;28;20088;-76
2023/06/26 03:16:38;;;;;;;24.45;18.90;;;;;;;;;;4992108;28;20038;-76
2023/06/26 03:19:04;;;;;;;27.63;18.55;;;;;;;;;;4992148;28;20405;-76
2023/06/26 03:21:38;;;;;;;27.20;18.17;;;;;;;;;;4991786;28;20184;-75
2023/06/26 03:24:05;;;;;;;30.52;17.85;;;;;;;;;;4976104;28;20077;-78
2023/06/26 03:26:32;;;;;;;35.30;17.85;;;;;;;;;;4991725;28;20069;-77
2023/06/26 03:28:59;;;;;;;32.58;18.00;;;;;;;;;;4991809;28;20042;-77
2023/06/26 03:31:25;;;;;;;26.75;18.35;;;;;;;;;;4991688;28;20045;-77
2023/06/26 03:33:51;;;;;;;19.27;16.25;;;;;;;;;;4991779;28;20516;-78
2023/06/26 03:36:18;;;;;;;19.05;15.38;;;;;;;;;;4991499;28;20045;-77
2023/06/26 03:38:45;;;;;;;27.27;16.73;;;;;;;;;;4991689;28;20033;-76
2023/06/26 03:41:12;;;;;;;18.00;14.43;;;;;;;;;;4991713;28;20052;-77
2023/06/26 03:43:38;;;;;;;17.48;14.50;;;;;;;;;;4991156;28;20044;-76
2023/06/26 03:46:19;;;;;;;16.35;14.15;;;;;;;;;;4975285;28;20031;-75
2023/06/26 03:48:46;;;;;;;14.45;12.95;;;;;;;;;;4991354;28;20062;-77
2023/06/26 03:51:14;;;;;;;17.00;12.77;;;;;;;;;;4975121;28;20045;-77
2023/06/26 03:53:40;;;;;;;13.77;12.57;;;;;;;;;;4974651;28;20497;-76
2023/06/26 03:56:06;;;;;;;13.30;11.90;;;;;;;;;;4992028;28;20445;-78
2023/06/26 03:58:33;;;;;;;15.60;12.57;;;;;;;;;;4991408;28;20035;-77
2023/06/26 04:01:00;;;;;;;20.20;11.90;;;;;;;;;;4993365;28;20034;-78
2023/06/26 04:03:26;;;;;;;13.23;11.15;;;;;;;;;;4992974;28;20045;-78
2023/06/26 04:05:53;;;;;;;13.98;12.52;;;;;;;;;;5000376;28;20038;-78
2023/06/26 04:08:19;;;;;;;18.55;11.77;;;;;;;;;;5003527;28;20049;-79
2023/06/26 04:10:47;;;;;;;15.07;11.40;;;;;;;;;;4998318;28;20040;-78
2023/06/26 04:13:14;;;;;;;14.30;11.82;;;;;;;;;;4992500;28;20053;-78
2023/06/26 04:15:40;;;;;;;13.88;11.35;;;;;;;;;;4992212;28;20529;-77
2023/06/26 04:18:06;;;;;;;16.30;11.63;;;;;;;;;;4992250;28;20205;-79
2023/06/26 04:20:34;;;;;;;11.77;10.63;;;;;;;;;;4991981;28;20612;-78
2023/06/26 04:23:01;;;;;;;11.13;10.10;;;;;;;;;;4992314;28;20069;-79
2023/06/26 04:25:29;;;;;;;13.85;10.05;;;;;;;;;;4990594;28;20049;-79
2023/06/26 04:27:54;;;;;;;10.40;9.32;;;;;;;;;;4992417;28;20034;-79
2023/06/26 04:30:21;;;;;;;10.98;9.75;;;;;;;;;;4991870;28;20034;-78
2023/06/26 04:32:47;;;;;;;16.33;9.18;;;;;;;;;;4974645;28;20034;-78
2023/06/26 04:35:13;;;;;;;10.75;8.57;;;;;;;;;;4992018;28;20412;-78
2023/06/26 04:37:40;;;;;;;9.30;8.57;;;;;;;;;;4991702;28;20117;-77
2023/06/26 04:40:07;;;;;;;10.75;8.77;;;;;;;;;;4974590;28;20038;-79
2023/06/26 04:42:32;;;;;;;12.05;8.13;;;;;;;;;;4991628;28;20489;-77
2023/06/26 04:44:59;;;;;;;11.63;7.57;;;;;;;;;;4990594;28;20121;-76
2023/06/26 04:47:24;;;;;;;8.70;7.85;;;;;;;;;;4993444;28;20038;-76
2023/06/26 04:49:51;;;;;;;8.27;7.68;;;;;;;;;;4994273;28;20061;-77
2023/06/26 04:52:17;;;;;;;9.18;8.38;;;;;;;;;;4991836;28;20038;-76
2023/06/26 04:54:43;;;;;;;8.68;7.97;;;;;;;;;;4991319;28;20061;-76
2023/06/26 04:57:11;;;;;;;8.90;8.10;;;;;;;;;;4991699;28;20085;-77
2023/06/26 04:59:37;;;;;;;9.13;8.23;;;;;;;;;;4991106;28;20537;-77
2023/06/26 05:02:04;;;;;;;7.70;7.10;;;;;;;;;;4991551;28;20053;-77
2023/06/26 05:04:31;;;;;;;10.73;7.50;;;;;;;;;;4991001;28;20066;-77
2023/06/26 05:06:57;;;;;;;8.52;7.93;;;;;;;;;;4990042;28;20537;-77
2023/06/26 05:09:23;;;;;;;7.93;7.22;;;;;;;;;;4990976;28;20041;-77
2023/06/26 05:11:49;;;;;;;8.23;7.63;;;;;;;;;;4991138;28;20030;-80
2023/06/26 05:14:15;;;;;;;8.15;7.45;;;;;;;;;;4991334;28;20394;-78
2023/06/26 05:16:41;;;;;;;11.90;8.00;;;;;;;;;;4989848;28;20038;-75
2023/06/26 05:19:06;;;;;;;11.30;8.25;;;;;;;;;;4990993;28;20034;-77
2023/06/26 05:21:34;;;;;;;9.90;8.25;;;;;;;;;;4990857;28;20472;-77
2023/06/26 05:24:00;;;;;;;8.30;7.60;;;;;;;;;;4989742;28;20540;-80
2023/06/26 05:26:27;;;;;;;9.45;7.65;;;;;;;;;;4989528;28;20561;-77
2023/06/26 05:28:53;;;;;;;10.02;8.13;;;;;;;;;;4989630;28;20018;-78
2023/06/26 05:31:19;;;;;;;8.88;7.63;;;;;;;;;;4991046;28;20048;-77
2023/06/26 05:33:45;;;;;;;7.72;7.03;;;;;;;;;;4973101;28;20026;-77
2023/06/26 05:36:12;;;;;;;12.32;7.40;;;;;;;;;;4990860;28;20056;-77
2023/06/26 05:38:38;;;;;;;8.15;7.50;;;;;;;;;;4991034;28;20030;-77
2023/06/26 05:41:04;;;;;;;9.00;7.00;;;;;;;;;;4990743;28;20054;-76
2023/06/26 05:43:30;;;;;;;8.45;7.60;;;;;;;;;;4989313;28;20034;-77
2023/06/26 05:45:57;;;;;;;8.73;7.93;;;;;;;;;;4990750;28;20045;-77
2023/06/26 05:48:23;;;;;;;8.13;7.43;;;;;;;;;;4990999;28;20054;-78
2023/06/26 05:50:49;;;;;;;11.95;7.35;;;;;;;;;;4990550;28;20524;-77
2023/06/26 05:53:15;;;;;;;7.57;6.88;;;;;;;;;;4990726;28;20112;-76
2023/06/26 05:55:42;;;;;;;7.32;6.65;;;;;;;;;;4989065;28;20281;-76
2023/06/26 05:58:09;;;;;;;10.82;7.30;;;;;;;;;;4990662;28;20416;-78
2023/06/26 06:00:35;;;;;;;9.50;7.13;;;;;;;;;;4989167;28;20038;-75
2023/06/26 06:03:01;;;;;;;7.38;6.88;;;;;;;;;;4972994;28;20050;-77
2023/06/26 06:05:28;;;;;;;7.50;6.90;;;;;;;;;;4990093;28;20096;-78
2023/06/26 06:07:54;;;;;;;7.10;6.50;;;;;;;;;;4990667;28;20034;-79
2023/06/26 06:10:20;;;;;;;6.90;6.40;;;;;;;;;;4990538;28;20042;-79
2023/06/26 06:12:46;;;;;;;7.38;6.78;;;;;;;;;;4990271;28;20118;-79
2023/06/26 06:15:12;;;;;;;7.68;6.78;;;;;;;;;;4991679;28;20073;-79
2023/06/26 06:17:38;;;;;;;6.68;6.18;;;;;;;;;;4994386;28;20409;-79
2023/06/26 06:20:06;;;;;;;6.65;6.13;;;;;;;;;;4994474;28;20030;-80
2023/06/26 06:22:32;;;;;;;6.68;6.18;;;;;;;;;;4994163;28;20050;-78
2023/06/26 06:24:59;;;;;;;7.38;6.57;;;;;;;;;;4992986;28;20034;-79
2023/06/26 06:27:25;;;;;;;6.38;5.70;;;;;;;;;;4992922;28;20053;-79
2023/06/26 06:29:51;;;;;;;5.60;5.20;;;;;;;;;;4993966;28;20405;-78
2023/06/26 06:32:17;;;;;;;6.75;5.50;;;;;;;;;;4994147;28;20034;-78
2023/06/26 06:34:43;;;;;;;6.45;6.05;;;;;;;;;;4993681;28;20041;-78
2023/06/26 06:37:09;;;;;;;6.28;5.78;;;;;;;;;;4996478;28;20042;-79
2023/06/26 06:39:35;;;;;;;5.78;5.20;;;;;;;;;;4998339;28;20386;-76
2023/06/26 06:42:01;;;;;;;6.30;5.80;;;;;;;;;;4994011;28;20038;-79
2023/06/26 06:44:27;;;;;;;8.48;5.68;;;;;;;;;;4993897;28;20038;-79
2023/06/26 06:46:53;;;;;;;6.35;5.75;;;;;;;;;;4992817;28;20034;-77
2023/06/26 06:49:19;;;;;;;6.72;6.13;;;;;;;;;;4993749;28;20104;-78
2023/06/26 06:51:45;;;;;;;6.47;5.82;;;;;;;;;;4992658;28;20390;-78
2023/06/26 06:54:11;;;;;;;5.60;5.20;;;;;;;;;;4994262;28;20045;-79
2023/06/26 06:56:37;;;;;;;6.50;5.90;;;;;;;;;;4992980;28;20089;-78
2023/06/26 06:59:03;;;;;;;8.60;5.82;;;;;;;;;;4994654;28;20038;-78
2023/06/26 07:01:29;;;;;;;6.97;5.85;;;;;;;;;;4995369;28;20410;-78
2023/06/26 07:03:55;;;;;;;7.32;5.95;;;;;;;;;;5004267;28;20057;-78
2023/06/26 07:06:22;;;;;;;5.97;5.38;;;;;;;;;;5005570;28;20040;-79
2023/06/26 07:08:48;;;;;;;7.80;6.05;;;;;;;;;;4993530;28;20066;-78
2023/06/26 07:11:13;;;;;;;6.82;6.30;;;;;;;;;;4992482;28;20074;-78
2023/06/26 07:13:40;;;;;;;6.70;6.20;;;;;;;;;;4993194;28;20121;-78
2023/06/26 07:16:06;;;;;;;6.05;5.10;;;;;;;;;;4993265;28;20066;-78
2023/06/26 07:18:32;;;;;;;6.70;6.10;;;;;;;;;;4991905;28;20532;-79
2023/06/26 07:20:57;;;;;;;6.32;5.93;;;;;;;;;;4993171;28;20038;-79
2023/06/26 07:23:23;;;;;;;6.47;5.97;;;;;;;;;;4993373;28;20309;-78
2023/06/26 07:25:49;;;;;;;7.65;5.97;;;;;;;;;;4992570;28;20830;-79
2023/06/26 07:28:15;;;;;;;7.07;6.40;;;;;;;;;;4974923;28;20149;-79
2023/06/26 07:30:42;;;;;;;5.63;5.13;;;;;;;;;;4991720;28;20027;-79
2023/06/26 07:33:08;;;;;;;7.13;5.75;;;;;;;;;;4975873;28;20038;-79
2023/06/26 07:35:34;;;;;;;6.65;6.05;;;;;;;;;;4991464;28;20027;-79
2023/06/26 07:38:00;;;;;;;8.15;6.38;;;;;;;;;;4993090;28;20603;-79
2023/06/26 07:40:27;;;;;;;7.57;7.07;;;;;;;;;;4992991;28;20046;-78
2023/06/26 07:42:53;;;;;;;6.88;6.28;;;;;;;;;;4992485;28;20096;-79
2023/06/26 07:45:20;;;;;;;6.95;6.32;;;;;;;;;;4992860;28;20030;-79
2023/06/26 07:47:46;;;;;;;7.35;6.80;;;;;;;;;;4991239;28;20109;-78
2023/06/26 07:50:15;;;;;;;7.88;7.18;;;;;;;;;;4992731;28;20531;-78
2023/06/26 07:52:41;;;;;;;6.32;5.82;;;;;;;;;;4992608;28;20038;-78
2023/06/26 07:55:07;;;;;;;7.30;5.82;;;;;;;;;;4992651;28;20060;-78
2023/06/26 07:57:33;;;;;;;6.22;5.82;;;;;;;;;;4992637;28;20062;-79
2023/06/26 08:00:00;;;;;;;6.60;6.13;;;;;;;;;;4991328;28;20471;-77
2023/06/26 08:02:26;;;;;;;6.82;6.22;;;;;;;;;;4992659;28;20420;-77
2023/06/26 08:04:52;;;;;;;6.38;5.82;;;;;;;;;;4990868;28;20038;-78
2023/06/26 08:07:18;;;;;;;7.15;6.65;;;;;;;;;;4992529;28;20579;-77
2023/06/26 08:09:44;;;;;;;6.55;6.05;;;;;;;;;;4990987;28;20121;-78
2023/06/26 08:12:10;;;;;;;7.85;5.88;;;;;;;;;;4992317;28;20125;-79
2023/06/26 08:14:36;;;;;;;6.78;6.28;;;;;;;;;;4974528;28;20409;-77
2023/06/26 08:17:03;;;;;;;6.38;5.93;;;;;;;;;;4991035;28;20038;-77
2023/06/26 08:19:29;;;;;;;6.30;5.70;;;;;;;;;;4992127;28;20038;-79
2023/06/26 08:21:54;;;;;;;6.72;5.30;;;;;;;;;;4990537;28;20049;-78
2023/06/26 08:24:21;;;;;;;6.55;5.95;;;;;;;;;;4992147;28;20046;-79
2023/06/26 08:26:47;;;;;;;6.25;5.75;;;;;;;;;;4998545;28;20040;-78
2023/06/26 08:29:13;;;;;;;5.90;5.40;;;;;;;;;;4993694;28;20042;-78
2023/06/26 08:31:39;;;;;;;7.03;5.95;;;;;;;;;;4990418;28;20038;-78
2023/06/26 08:34:05;;;;;;;5.60;5.30;;;;;;;;;;4991811;28;20531;-78
2023/06/26 08:36:32;;;;;;;6.82;6.30;;;;;;;;;;4991830;28;20215;-79
2023/06/26 08:38:58;;;;;;;6.07;5.68;;;;;;;;;;4991075;28;20529;-78
2023/06/26 08:41:24;;;;;;;6.25;5.78;;;;;;;;;;4990171;28;20049;-78
2023/06/26 08:43:52;;;;;;;6.38;5.80;;;;;;;;;;4990262;28;20133;-78
2023/06/26 08:46:19;;;;;;;6.10;5.60;;;;;;;;;;4991563;28;20027;-78
2023/06/26 08:48:46;;;;;;;5.30;4.90;;;;;;;;;;4991079;28;20117;-78
2023/06/26 08:51:12;;;;;;;5.32;4.88;;;;;;;;;;4991426;28;20092;-78
2023/06/26 08:54:05;;;;;;;5.05;4.75;;;;;;;;;;4990110;28;20038;-78
2023/06/26 08:56:37;;;;;;;5.50;5.10;;;;;;;;;;4970492;28;20596;-78
2023/06/26 08:59:03;;;;;;;5.65;5.18;;;;;;;;;;4990050;28;20038;-79
2023/06/26 09:01:30;;;;;;;6.18;5.78;;;;;;;;;;4989961;28;20170;-79
2023/06/26 09:03:57;;;;;;;6.03;5.63;;;;;;;;;;4991042;28;20034;-76
2023/06/26 09:06:23;;;;;;;6.13;5.72;;;;;;;;;;4991194;28;20030;-79
2023/06/26 09:08:49;;;;;;;6.85;6.25;;;;;;;;;;4989746;28;20042;-79
2023/06/26 09:11:15;;;;;;;7.60;5.90;;;;;;;;;;4991211;28;20539;-79
2023/06/26 09:13:41;;;;;;;6.72;6.20;;;;;;;;;;4991155;28;20077;-79
2023/06/26 09:16:10;;;;;;;6.25;5.85;;;;;;;;;;4991114;28;20046;-79
2023/06/26 09:18:36;;;;;;;6.75;6.15;;;;;;;;;;4991043;28;20047;-79
2023/06/26 09:21:06;;;;;;;6.10;5.63;;;;;;;;;;4990954;28;20505;-80
2023/06/26 09:23:33;;;;;;;6.38;5.97;;;;;;;;;;4991563;28;20122;-80
2023/06/26 09:26:00;;;;;;;5.20;4.70;;;;;;;;;;4989570;28;20120;-79
2023/06/26 09:28:26;;;;;;;5.22;4.82;;;;;;;;;;4973726;28;20045;-79
2023/06/26 09:30:52;;;;;;;5.25;4.85;;;;;;;;;;4990677;28;20048;-80
2023/06/26 09:33:18;;;;;;;5.78;5.30;;;;;;;;;;4973910;28;20038;-80
2023/06/26 09:35:45;;;;;;;4.80;4.03;;;;;;;;;;4990768;28;20112;-79
2023/06/26 09:38:11;;;;;;;5.07;4.68;;;;;;;;;;4991231;28;20500;-79
2023/06/26 09:40:38;;;;;;;6.13;5.60;;;;;;;;;;4991020;28;20117;-79
2023/06/26 09:43:04;;;;;;;6.50;4.75;;;;;;;;;;4990914;28;20050;-79
2023/06/26 09:45:33;;;;;;;5.97;5.40;;;;;;;;;;4991117;28;20030;-79
2023/06/26 09:48:01;;;;;;;5.72;5.32;;;;;;;;;;4990584;28;20469;-81
2023/06/26 09:50:27;;;;;;;5.38;4.88;;;;;;;;;;4990299;28;20472;-81
2023/06/26 09:52:53;;;;;;;5.10;4.60;;;;;;;;;;4990982;28;20117;-78
2023/06/26 09:55:19;;;;;;;19.20;17.23;;;;;;;;;;4991885;28;20061;-79
2023/06/26 09:57:45;;;;;;;6.13;5.60;;;;;;;;;;4994972;28;20034;-81
2023/06/26 10:00:12;;;;;;;5.80;5.40;;;;;;;;;;5002968;28;20046;-80
2023/06/26 10:02:39;;;;;;;7.18;6.50;;;;;;;;;;4983021;28;20049;-78
2023/06/26 10:05:05;;;;;;;6.03;5.63;;;;;;;;;;4989490;28;20026;-80
2023/06/26 10:07:31;;;;;;;8.98;6.13;;;;;;;;;;4989945;28;20046;-80
2023/06/26 10:09:57;;;;;;;6.05;5.65;;;;;;;;;;4990791;28;20054;-79
2023/06/26 10:12:30;;;;;;;6.15;5.55;;;;;;;;;;4992752;28;20038;-80
2023/06/26 10:14:57;;;;;;;6.95;5.40;;;;;;;;;;5001300;28;20050;-80
2023/06/26 10:17:25;;;;;;;6.68;5.45;;;;;;;;;;4995370;28;20038;-80
2023/06/26 10:19:53;;;;;;;10.75;5.93;;;;;;;;;;4989447;28;20034;-80
2023/06/26 10:22:20;;;;;;;6.85;5.93;;;;;;;;;;4989872;28;20050;-80
2023/06/26 10:24:47;;;;;;;5.75;5.25;;;;;;;;;;4990461;28;20038;-79
2023/06/26 10:27:16;;;;;;;6.55;5.95;;;;;;;;;;4990698;28;20104;-80
2023/06/26 10:29:46;;;;;;;6.25;5.85;;;;;;;;;;4989372;28;20456;-81
2023/06/26 10:32:12;;;;;;;6.82;6.10;;;;;;;;;;4989513;28;20038;-81
2023/06/26 10:34:38;;;;;;;5.80;5.22;;;;;;;;;;4990631;28;20045;-79
2023/06/26 10:37:04;;;;;;;6.03;5.53;;;;;;;;;;4972812;28;20038;-80
2023/06/26 10:39:45;;;;;;;5.93;5.53;;;;;;;;;;4989258;28;20042;-81
2023/06/26 10:42:11;;;;;;;5.82;5.43;;;;;;;;;;4990276;28;20129;-79
2023/06/26 10:44:43;;;;;;;6.47;5.85;;;;;;;;;;4990485;28;20173;-80
2023/06/26 10:47:10;;;;;;;6.55;6.07;;;;;;;;;;4990361;28;20038;-80
2023/06/26 10:49:36;;;;;;;7.88;6.03;;;;;;;;;;4990485;28;20065;-80
2023/06/26 10:52:02;;;;;;;5.82;5.32;;;;;;;;;;4990166;28;20043;-81
2023/06/26 10:54:28;;;;;;;6.30;5.75;;;;;;;;;;4989274;28;20035;-81
2023/06/26 10:56:57;;;;;;;6.13;5.63;;;;;;;;;;4990050;28;20114;-82
2023/06/26 10:59:24;;;;;;;6.00;5.50;;;;;;;;;;4991502;28;20307;-81
2023/06/26 11:01:57;;;;;;;5.60;5.18;;;;;;;;;;4991598;28;20043;-79
2023/06/26 11:04:39;;;;;;;5.93;5.47;;;;;;;;;;4993708;28;20128;-80
2023/06/26 11:07:15;;;;;;;5.35;4.95;;;;;;;;;;4993289;28;20031;-80
2023/06/26 11:10:01;;;;;;;5.53;5.13;;;;;;;;;;4993650;28;20033;-80
2023/06/26 11:12:49;;;;;;;5.65;5.20;;;;;;;;;;4992437;28;20528;-79
2023/06/26 11:15:15;;;;;;;5.60;5.20;;;;;;;;;;4992318;28;20038;-79
2023/06/26 11:17:41;;;;;;;5.85;5.35;;;;;;;;;;4976118;28;20045;-80
2023/06/26 11:20:09;;;;;;;5.25;4.85;;;;;;;;;;4993094;28;20058;-81
2023/06/26 11:22:35;;;;;;;5.05;4.45;;;;;;;;;;4992011;28;20068;-79
2023/06/26 11:25:02;;;;;;;5.25;4.95;;;;;;;;;;4975652;28;20056;-80
2023/06/26 11:27:35;;;;;;;6.03;4.57;;;;;;;;;;4993510;28;20042;-80
2023/06/26 11:30:01;;;;;;;5.30;4.90;;;;;;;;;;4991395;28;20022;-79
2023/06/26 11:32:32;;;;;;;4.90;4.50;;;;;;;;;;4993530;28;20047;-80
2023/06/26 11:34:58;;;;;;;6.07;5.00;;;;;;;;;;4992782;28;20041;-79
2023/06/26 11:37:24;;;;;;;5.07;4.68;;;;;;;;;;4992029;28;20038;-80
2023/06/26 11:39:51;;;;;;;4.80;4.50;;;;;;;;;;4992916;28;20036;-80
2023/06/26 11:42:18;;;;;;;5.03;4.38;;;;;;;;;;4992988;28;20046;-77
2023/06/26 11:44:44;;;;;;;4.70;4.20;;;;;;;;;;4993283;28;20409;-80
2023/06/26 11:47:16;;;;;;;5.10;4.70;;;;;;;;;;4992807;28;20038;-81
2023/06/26 11:49:46;;;;;;;5.40;4.78;;;;;;;;;;4991505;28;20050;-80
2023/06/26 11:52:11;;;;;;;5.30;4.80;;;;;;;;;;4992563;28;20038;-79
2023/06/26 11:54:38;;;;;;;4.60;4.20;;;;;;;;;;4992828;28;20096;-80
2023/06/26 11:57:05;;;;;;;4.60;4.30;;;;;;;;;;4993307;28;20058;-82
2023/06/26 11:59:37;;;;;;;6.03;4.57;;;;;;;;;;4995101;28;20027;-82
2023/06/26 12:02:10;;;;;;;6.25;4.72;;;;;;;;;;5005223;28;20042;-83
2023/06/26 12:04:37;;;;;;;4.72;4.32;;;;;;;;;;5006899;28;20042;-82
2023/06/26 12:07:04;;;;;;;4.15;3.85;;;;;;;;;;4959915;28;20038;-82
2023/06/26 12:09:33;;;;;;;5.05;4.70;;;;;;;;;;4993591;28;20100;-81
2023/06/26 12:11:59;;;;;;;4.97;4.68;;;;;;;;;;4994344;28;20042;-84
2023/06/26 12:14:25;;;;;;;4.95;4.55;;;;;;;;;;4975777;28;20406;-80
2023/06/26 12:16:52;;;;;;;8.15;6.45;;;;;;;;;;4977118;28;20039;-80
2023/06/26 12:19:23;;;;;;;7.88;6.45;;;;;;;;;;4992399;28;20117;-79
2023/06/26 12:21:52;;;;;;;8.07;7.20;;;;;;;;;;4974700;28;20136;-82
2023/06/26 12:24:19;;;;;;;7.30;6.60;;;;;;;;;;4991428;28;20030;-78
2023/06/26 12:26:45;;;;;;;9.73;8.57;;;;;;;;;;4974963;28;20030;-81
2023/06/26 12:29:12;;;;;;;11.57;9.27;;;;;;;;;;4991843;28;20117;-79
2023/06/26 12:31:41;;;;;;;11.18;9.48;;;;;;;;;;4992325;28;20121;-81
2023/06/26 12:34:12;;;;;;;8.88;8.10;;;;;;;;;;4992575;28;20086;-81
2023/06/26 12:36:37;;;;;;;;;;;;;;;;;;4994128;28;20608;-80
2023/06/26 12:39:03;;;;;;;6.50;5.90;;;;;;;;;;4991756;28;20004;-79
2023/06/26 12:41:29;;;;;;;6.68;5.88;;;;;;;;;;4991943;28;20145;-80
2023/06/26 12:43:56;;;;;;;6.10;5.68;;;;;;;;;;4992850;28;20073;-79
2023/06/26 12:46:32;;;;;;;5.22;4.82;;;;;;;;;;4991832;28;20509;-81
2023/06/26 12:48:58;;;;;;;4.50;4.10;;;;;;;;;;4991363;28;20058;-80
2023/06/26 12:51:26;;;;;;;5.82;5.28;;;;;;;;;;4991619;28;20038;-81
2023/06/26 12:53:52;;;;;;;5.35;4.95;;;;;;;;;;4990102;28;20476;-81
2023/06/26 12:56:19;;;;;;;5.53;4.90;;;;;;;;;;4991873;28;20046;-80
2023/06/26 12:58:46;;;;;;;6.60;6.10;;;;;;;;;;4991645;28;20109;-81
2023/06/26 13:01:15;;;;;;;6.15;4.75;;;;;;;;;;4991283;28;20106;-78
2023/06/26 13:03:41;;;;;;;5.70;5.30;;;;;;;;;;4991980;28;20037;-81
2023/06/26 13:06:07;;;;;;;4.60;4.30;;;;;;;;;;4989923;28;20406;-80
2023/06/26 13:08:33;;;;;;;5.40;4.97;;;;;;;;;;4991771;28;20038;-79
2023/06/26 13:10:59;;;;;;;5.28;4.78;;;;;;;;;;4989776;28;20616;-81
2023/06/26 13:13:25;;;;;;;4.90;4.50;;;;;;;;;;4991581;28;20646;-81
2023/06/26 13:15:51;;;;;;;5.07;4.78;;;;;;;;;;4991062;28;20089;-81
2023/06/26 13:18:17;;;;;;;5.93;5.25;;;;;;;;;;4991418;28;20035;-78
2023/06/26 13:20:43;;;;;;;6.38;5.07;;;;;;;;;;4991354;28;20070;-80
2023/06/26 13:23:09;;;;;;;5.20;4.78;;;;;;;;;;4989728;28;20042;-82
2023/06/26 13:25:35;;;;;;;5.40;4.93;;;;;;;;;;4991606;28;20061;-81
2023/06/26 13:28:01;;;;;;;5.93;5.40;;;;;;;;;;4991435;28;20120;-82
2023/06/26 13:30:27;;;;;;;5.78;4.38;;;;;;;;;;4991379;28;20066;-80
2023/06/26 13:32:53;;;;;;;5.07;4.78;;;;;;;;;;4991026;28;20042;-80
2023/06/26 13:35:19;;;;;;;5.05;4.65;;;;;;;;;;4990191;28;20026;-80
2023/06/26 13:37:47;;;;;;;4.95;4.55;;;;;;;;;;4973364;28;20100;-81
2023/06/26 13:40:12;;;;;;;4.70;4.40;;;;;;;;;;4990881;28;20026;-81
2023/06/26 13:42:39;;;;;;;4.63;4.32;;;;;;;;;;4990771;28;20142;-81
2023/06/26 13:45:09;;;;;;;5.30;4.88;;;;;;;;;;4989681;28;20237;-81
2023/06/26 13:47:40;;;;;;;5.20;4.80;;;;;;;;;;4991665;28;20088;-79
2023/06/26 13:50:08;;;;;;;4.75;4.45;;;;;;;;;;4996040;28;20105;-82
2023/06/26 13:52:34;;;;;;;4.50;4.20;;;;;;;;;;4968171;28;20163;-81
2023/06/26 13:55:00;;;;;;;4.20;3.83;;;;;;;;;;4990717;28;20481;-79
2023/06/26 13:57:27;;;;;;;5.20;4.57;;;;;;;;;;4990727;28;20034;-80
2023/06/26 13:59:53;;;;;;;5.68;4.63;;;;;;;;;;4989699;28;20054;-80
2023/06/26 14:02:19;;;;;;;4.75;4.30;;;;;;;;;;4990500;28;20527;-80
2023/06/26 14:04:45;;;;;;;5.57;4.85;;;;;;;;;;4990981;28;20408;-80
2023/06/26 14:07:11;;;;;;;4.53;4.22;;;;;;;;;;4990399;28;20046;-80
2023/06/26 14:09:37;;;;;;;6.65;4.45;;;;;;;;;;4989552;28;20038;-80
2023/06/26 14:12:04;;;;;;;4.97;4.65;;;;;;;;;;4990340;28;20216;-80
2023/06/26 14:14:30;;;;;;;5.20;4.38;;;;;;;;;;4990878;28;20038;-79
2023/06/26 14:16:56;;;;;;;7.80;5.03;;;;;;;;;;4990639;28;20046;-80
2023/06/26 14:19:22;;;;;;;4.60;4.30;;;;;;;;;;4990678;28;20034;-80
2023/06/26 14:21:48;;;;;;;6.70;4.80;;;;;;;;;;4989517;28;20041;-80
2023/06/26 14:24:14;;;;;;;5.15;4.75;;;;;;;;;;4989216;28;20042;-82
2023/06/26 14:26:40;;;;;;;5.25;4.85;;;;;;;;;;4990803;28;20056;-80
2023/06/26 14:29:06;;;;;;;5.32;4.93;;;;;;;;;;4991120;28;20093;-80
2023/06/26 14:31:32;;;;;;;5.05;4.65;;;;;;;;;;4990648;28;20038;-79
2023/06/26 14:33:59;;;;;;;5.53;5.03;;;;;;;;;;5000268;28;20089;-79